Challenge JP Guerit

Le Jogging De La Libération - Forge-Philippe (13.3 km)

samedi 07 septembre 2019

Le classement original se trouve sur : http://www.challenge-guerit.be/
 
CHALLENGE JP GUERIT
LE JOGGING DE LA LIBÉRATION - FORGE-PHILIPPE
DISTANCE 13.30 km
samedi 07 septembre 2019
 
place
finish
dos NOM Equipe Catég. Place
catégorie
temps temps/km Vitesse
1 154 GROENNE ELIAN LA THURE JUH 1 00:49:55 03:45 15.99
2 59 LEBLANC RENAUD JACO SEN H 1 00:49:59 03:45 15.97
3 62 VAN LERBERGHE MARTIN JACO SEN H 2 00:50:09 03:46 15.91
4 65 BAILLY JONATHAN - SEN H 3 00:53:06 04:00 15.03
5 43 GHISLAIN MAXIMILIEN TDF SEN H 4 00:53:46 04:03 14.84
6 111 LINDEKENS LAURIE CSCV HIRSON SEN F 1 00:53:58 04:03 14.79
7 136 MICHEL CHRISTOPHER JACO SEN H 5 00:54:22 04:05 14.68
8 29 RIVEZ PIERRE LA THURE V3 1 00:54:40 04:07 14.60
9 127 MOREAU GUILLAUME - SEN H 6 00:55:13 04:09 14.45
10 60 VAN GHELUWE RÉMI JACO SEN H 7 00:55:22 04:10 14.41
11 26 MAUDOUX LIONEL JACO SEN H 8 00:55:32 04:11 14.37
12 173 RENARD LUC JACO V2 1 00:55:43 04:11 14.32
13 30 ROCHETTE ARNAUD - SEN H 9 00:57:03 04:17 13.99
14 130 THOMAS DOMINIC ACCO V2 2 00:57:07 04:18 13.97
15 69 RICHARD SÉBASTIEN CSCV HIRSON V1 1 00:58:03 04:22 13.75
16 10 BRUNEBARBE JOËL LA THURE V1 2 00:58:48 04:25 13.57
17 48 DE PESTEL BLAISE VAULX SEN H 10 00:59:08 04:27 13.49
18 155 LABILLOY STÉPHANE - SEN H 11 01:00:04 04:31 13.29
19 35 DUBOIS SÉBASTIEN LA THURE V1 3 01:00:24 04:32 13.21
20 128 ERNEST NICOLAS - SEN H 12 01:00:38 04:34 13.16
21 159 VANHEES CHRISTOPHER SHARKS TRIATHLON CHIMAY SEN H 13 01:01:12 04:36 13.04
22 63 DESIMEUR JÉRÔME AC FRONTIERES V1 4 01:01:19 04:37 13.01
23 172 GAUDRY CÉDRIC - SEN H 14 01:02:01 04:40 12.87
24 129 POUCET BENOÎT JACO V2 3 01:02:44 04:43 12.72
25 123 AMANT BERTRAND LA THURE SEN H 15 01:03:01 04:44 12.66
26 57 LEJEUNE ALAIN JACO V2 4 01:03:03 04:44 12.66
27 163 LEROY JEAN-PIERRE ACCO V1 5 01:03:05 04:45 12.65
28 113 LENOIR ANDY TRAILERS DES FAGNES V1 6 01:03:06 04:45 12.65
29 162 ANSELIN DOMINIQUE - V1 7 01:03:09 04:45 12.64
30 40 LEROY JORIS JACO SEN H 16 01:03:24 04:46 12.59
31 105 LECOMTE JEAN-CLAUDE CAFOUR V3 2 01:03:51 04:48 12.50
32 152 CORDEWENER BENOIT AC FRONTIERES SEN H 17 01:03:54 04:48 12.49
33 114 CAMUS DENIS - V3 3 01:04:03 04:49 12.46
34 11 CORDEWENER JOËL AC FRONTIERES V1 8 01:04:17 04:50 12.41
35 169 FRANCOIS HERVÉ - SEN H 18 01:04:21 04:50 12.40
36 170 FRANCOIS RAPHAËL - x   01:04:22 04:50 12.40
37 18 GUILLAUME YVES JTRR V2 5 01:04:36 04:51 12.35
38 151 LABILLOY LAURENT AC FRONTIERES V3 4 01:04:52 04:53 12.30
39 68 DAMBROISE KRISTEL - SEN F 2 01:05:28 04:55 12.19
40 3 HENRARD ETIENNE AC FRONTIERES V3 5 01:05:28 04:55 12.19
41 171 DEGEZELLE STÉPHANE AC FRONTIERES V2 6 01:05:41 04:56 12.15
42 37 FICHET LAURENT JACO V1 9 01:05:54 04:57 12.11
43 47 NICOLAS CATHERINE - A1 1 01:06:08 04:58 12.07
44 150 CORDEWENER ALAIN AC FRONTIERES V2 7 01:06:09 04:58 12.06
45 142 ES CHRISTIAN AC FRONTIERES V3 6 01:06:20 04:59 12.03
46 49 SOKAY MICHEL LA THURE V4 1 01:06:49 05:01 11.94
47 67 LECHAT ELISE JACO JUF 1 01:08:20 05:08 11.68
48 22 LEJEUNE PHILIPPE JACO V2 8 01:08:34 05:09 11.64
49 102 LESCEUX JOSÉ - V2 9 01:08:48 05:10 11.60
50 143 BOURLARD FRÉDÉRIC JACO V1 10 01:09:05 05:12 11.55
51 15 FICHET DOMINIQUE JACO V1 11 01:09:18 05:13 11.52
52 33 VAN RENTERGHEM ANDRÉ ACCO V4 2 01:09:52 05:15 11.42
53 14 DEVILLE PHILIPPE JTRR V3 7 01:09:52 05:15 11.42
54 161 LANTHIER PHILIPPE CCSTC V1 12 01:10:10 05:17 11.37
55 120 NAVEAU CORALIE - SEN F 3 01:10:14 05:17 11.36
56 4 AUBERT SERGE CHUDONDORGANES V3 8 01:10:15 05:17 11.36
57 126 VIOT JOËL MACERIENNE V4 3 01:10:44 05:19 11.28
58 17 GOBINET PASCAL RTT 4C V2 10 01:10:51 05:20 11.26
59 117 COLINET PATRICIA - A4 1 01:11:01 05:20 11.24
60 116 COLINET CÉDRIC - V1 13 01:11:09 05:21 11.22
61 110 NICOLAS JÉRÔME - SEN H 19 01:11:11 05:21 11.21
62 45 DE PESTEL HERVÉ VAULX V2 11 01:11:56 05:25 11.09
63 125 NAVEAU EMILIE JACO SEN F 4 01:14:17 05:35 10.74
64 140 GUY PIERRE AC FRONTIERES V4 4 01:14:18 05:35 10.74
65 56 LINSTER ARNAUD STRATOS RUNNING SEN H 20 01:15:09 05:39 10.62
66 147 DETAILLE CÉLINE - A1 2 01:15:38 05:41 10.55
67 139 BEAUGET PATRICK JTRR V2 12 01:15:50 05:42 10.52
68 46 BEGAUX JEAN JTRR V3 9 01:16:10 05:44 10.48
69 131 MAGNAN STÉPHANIE RTT ST MICH A1 3 01:16:50 05:47 10.39
70 34 COLLART MARCELLE - A2 1 01:17:00 05:47 10.36
71 109 DENAYER VINCENT LA THURE V2 13 01:17:50 05:51 10.25
72 153 VAILLANT JEAN-MICHEL RUNNING TRAIL THIERACHE V4 5 01:17:59 05:52 10.23
73 144 HANNEVART LAURENT - V2 14 01:18:52 05:56 10.12
74 115 COLINET PAUL - V4 6 01:19:17 05:58 10.07
75 167 GODELLE JEAN-PHILIPPE RUNNING TRAIL THIERACHE V1 14 01:19:39 05:59 10.02
76 21 HENRY PHILIPPE LA THURE V1 15 01:19:47 06:00 10.00
77 166 GODELLE CÉLINE RUNNING TRAIL THIERACHE A1 4 01:20:14 06:02 9.95
78 118 COQUELET MICHEL LA THURE V3 10 01:21:05 06:06 9.84
79 149 CORAZZA PHILIPPE PHILIPPEVILLE V2 15 01:21:36 06:08 9.78
80 23 LEMAIRE AIMÉ AC FRONTIERES V4 7 01:22:06 06:10 9.72
81 168 FRANCOIS JUSTIN FRANCOS SEN H 21 01:22:20 06:11 9.69
82 137 GILLE ALIZÉE QUALITY ASSISTANCE SEN F 5 01:22:48 06:14 9.64
83 121 LIMOUSIN MAXIME LA THURE x   01:23:01 06:15 9.61
84 164 COLLET STEPHANIE - A1 5 01:23:43 06:18 9.53
85 107 DEMAIN CORINNE LA THURE A2 2 01:23:56 06:19 9.51
86 138 MICHIELIN MARJORIE - A1 6 01:23:59 06:19 9.50
87 165 GUIOT ALEXANDRA STRATOS SEN F 6 01:24:10 06:20 9.48
88 112 DELABAERE BRUNO - V2 16 01:24:21 06:21 9.46
89 106 PESTIAUX YVES LA THURE V4 8 01:24:25 06:21 9.45
90 148 DUSSART DELPHINE JACO A2 3 01:26:07 06:28 9.27
91 103 GANY PASCALE JACO A2 4 01:26:22 06:30 9.24
92 157 LEBLANC DIMITRI - SEN H 22 01:27:58 06:37 9.07
93 16 FLEURY FRANCIS CSCV HIRSON V2 17 01:29:11 06:42 8.95
94 156 FLEURY ANNIE JACO A3 1 01:30:12 06:47 8.85
95 146 MEERTENS MORGANE LA THURE SEN F 7 01:30:19 06:47 8.84
96 145 HANNEVART ANTOINE - JUH 2 01:30:37 06:49 8.81
97 133 DEGRANDE AURÉLIE - SEN F 8 01:39:22 07:28 8.03
98 132 DEGRANDE STÉPHANIE - SEN F 9 01:39:55 07:31 7.99
99 124 TOURNEUR SOPHIE USV 86 A1 7 01:46:47 08:02 7.47
100 104 SEPTON MARIE-EMILIE LA THURE A3 2 01:49:02 08:12 7.32
101 122 DULIEU STÉPHANIE LA THURE CAP BEAURAING A2 5 01:49:39 08:15 7.28
102 119 ROUSSEAUX FLORENCE LA THURE A2 6 01:49:44 08:15 7.27
103 32 TORFS CHRISTINE LA THURE A4 2 01:49:46 08:15 7.27